首页
METAR-TAF:

METAR-TAF

机场 :

南紀白濱機場

田邊, 日本

纬度: 33-44N, 经度: 135-23E, 海拔: 105米

当前天气观测

该预报发布于4小时和36分钟前的10:00 UTC
风速3节,风向东转东南,在南转南东之间变化
温度 15°C
湿度 72%
气压 1014 hPa
能见度10公里或以上
1500米以下无云,无积雨云

METAR: RJBD 081000Z 11003KT 090V150 CAVOK 15/10 Q1014

时间: 23:36 (14:36 UTC)


TAF: 丢失

超过4000个机场的气象观测和天气预报(METAR&TAF报告)。

可查询的气象台以黄色和红色小点在地图上表示。

将鼠标移到小点上方,可查看气象台名称。

然后点击查看天气观测和预报。

如需切换地图:点击带黑十字的绿色按钮放大地图;点击带横线的绿色按钮缩小地图;或者点击绿色箭头查看邻近地区的地图。


METAR-TAF: